Terminal Aerodrome Forecast
Issued by NWS

Home | Current Version | Previous Version | Text Only | Print | Product List | Glossary On
Versions: 1 2 3 4 5 6 7 8 9 10 11 12 13 14 15 16 17 18 19
000
FTUS44 KTSA 071745
TAFBVO
TAF
KBVO 071745Z 0718/0818 02011KT 5SM BR VCSH OVC012
      TEMPO 0718/0722 2SM +SHRA BKN006 OVC012
     FM072300 04005KT 2SM -RA BR BKN006 OVC015
      TEMPO 0723/0803 1SM +RA BR BKN003 OVC010
     FM080900 14010KT 2SM -RA BR OVC007=

USA.gov is the U.S. government's official web portal to all federal, state and local government web resources and services.